sensor_id;sensor_type;location;lat;lon;timestamp;pressure;altitude;pressure_sealevel;temperature;humidity
55066;BME280;40964;42.114;24.220;2022-12-18T00:00:45;98429.06;;;10.20;100.00
55066;BME280;40964;42.114;24.220;2022-12-18T00:03:13;98434.91;;;10.15;100.00
55066;BME280;40964;42.114;24.220;2022-12-18T00:05:49;98444.22;;;10.11;100.00
55066;BME280;40964;42.114;24.220;2022-12-18T00:08:16;98440.97;;;10.09;100.00
55066;BME280;40964;42.114;24.220;2022-12-18T00:10:42;98440.53;;;10.06;100.00
55066;BME280;40964;42.114;24.220;2022-12-18T00:13:08;98445.78;;;10.06;100.00
55066;BME280;40964;42.114;24.220;2022-12-18T00:15:35;98448.25;;;10.07;100.00
55066;BME280;40964;42.114;24.220;2022-12-18T00:18:00;98448.66;;;10.11;100.00
55066;BME280;40964;42.114;24.220;2022-12-18T00:20:26;98431.03;;;10.05;100.00
55066;BME280;40964;42.114;24.220;2022-12-18T00:22:52;98451.53;;;10.22;100.00
55066;BME280;40964;42.114;24.220;2022-12-18T00:25:18;98455.22;;;10.28;100.00
55066;BME280;40964;42.114;24.220;2022-12-18T00:27:44;98459.06;;;10.32;100.00
55066;BME280;40964;42.114;24.220;2022-12-18T00:30:10;98460.88;;;10.32;100.00
55066;BME280;40964;42.114;24.220;2022-12-18T00:32:35;98461.72;;;10.39;100.00
55066;BME280;40964;42.114;24.220;2022-12-18T00:35:01;98461.31;;;10.42;100.00
55066;BME280;40964;42.114;24.220;2022-12-18T00:37:27;98465.16;;;10.39;100.00
55066;BME280;40964;42.114;24.220;2022-12-18T00:39:52;98471.22;;;10.40;100.00
55066;BME280;40964;42.114;24.220;2022-12-18T00:42:18;98464.94;;;10.41;100.00
55066;BME280;40964;42.114;24.220;2022-12-18T00:45:03;98471.63;;;10.37;100.00
55066;BME280;40964;42.114;24.220;2022-12-18T00:47:28;98481.72;;;10.40;100.00
55066;BME280;40964;42.114;24.220;2022-12-18T00:49:54;98483.16;;;10.36;100.00
55066;BME280;40964;42.114;24.220;2022-12-18T00:52:19;98486.19;;;10.39;100.00
55066;BME280;40964;42.114;24.220;2022-12-18T00:54:44;98475.88;;;10.38;100.00
55066;BME280;40964;42.114;24.220;2022-12-18T00:57:10;98479.94;;;10.47;100.00
55066;BME280;40964;42.114;24.220;2022-12-18T00:59:35;98474.44;;;10.42;100.00
55066;BME280;40964;42.114;24.220;2022-12-18T01:02:01;98470.19;;;10.41;100.00
55066;BME280;40964;42.114;24.220;2022-12-18T01:04:26;98471.66;;;10.43;100.00
55066;BME280;40964;42.114;24.220;2022-12-18T01:06:52;98481.97;;;10.45;100.00
55066;BME280;40964;42.114;24.220;2022-12-18T01:09:18;98475.88;;;10.44;100.00
55066;BME280;40964;42.114;24.220;2022-12-18T01:11:43;98475.69;;;10.46;100.00
55066;BME280;40964;42.114;24.220;2022-12-18T01:14:09;98463.94;;;10.42;100.00
55066;BME280;40964;42.114;24.220;2022-12-18T01:16:35;98482.97;;;10.44;100.00
55066;BME280;40964;42.114;24.220;2022-12-18T01:19:00;98440.16;;;10.15;100.00
55066;BME280;40964;42.114;24.220;2022-12-18T01:21:26;98485.94;;;10.28;100.00
55066;BME280;40964;42.114;24.220;2022-12-18T01:23:53;98494.03;;;10.26;100.00
55066;BME280;40964;42.114;24.220;2022-12-18T01:26:19;98487.78;;;10.27;100.00
55066;BME280;40964;42.114;24.220;2022-12-18T01:28:44;98493.22;;;10.32;100.00
55066;BME280;40964;42.114;24.220;2022-12-18T01:33:35;98485.16;;;10.34;100.00
55066;BME280;40964;42.114;24.220;2022-12-18T01:36:01;98495.84;;;10.32;100.00
55066;BME280;40964;42.114;24.220;2022-12-18T01:38:28;98495.66;;;10.27;100.00
55066;BME280;40964;42.114;24.220;2022-12-18T01:40:58;98495.59;;;10.20;100.00
55066;BME280;40964;42.114;24.220;2022-12-18T01:43:48;98511.63;;;10.26;100.00
55066;BME280;40964;42.114;24.220;2022-12-18T01:46:15;98510.81;;;10.25;100.00
55066;BME280;40964;42.114;24.220;2022-12-18T01:48:41;98510.00;;;10.25;100.00
55066;BME280;40964;42.114;24.220;2022-12-18T01:51:09;98515.81;;;10.20;100.00
55066;BME280;40964;42.114;24.220;2022-12-18T01:53:36;98505.47;;;10.12;100.00
55066;BME280;40964;42.114;24.220;2022-12-18T01:56:03;98518.03;;;10.16;100.00
55066;BME280;40964;42.114;24.220;2022-12-18T02:01:12;98515.78;;;10.07;100.00
55066;BME280;40964;42.114;24.220;2022-12-18T02:03:41;98512.34;;;10.13;100.00
55066;BME280;40964;42.114;24.220;2022-12-18T02:06:28;98507.69;;;10.15;100.00
55066;BME280;40964;42.114;24.220;2022-12-18T02:09:09;98513.75;;;10.15;100.00
55066;BME280;40964;42.114;24.220;2022-12-18T02:11:49;98505.25;;;10.13;100.00
55066;BME280;40964;42.114;24.220;2022-12-18T02:17:21;98526.03;;;10.02;100.00
55066;BME280;40964;42.114;24.220;2022-12-18T02:20:01;98505.13;;;9.87;100.00
55066;BME280;40964;42.114;24.220;2022-12-18T02:28:07;98526.09;;;9.74;100.00
55066;BME280;40964;42.114;24.220;2022-12-18T02:30:37;98531.09;;;9.68;100.00
55066;BME280;40964;42.114;24.220;2022-12-18T02:33:04;98532.50;;;9.64;100.00
55066;BME280;40964;42.114;24.220;2022-12-18T02:35:33;98529.25;;;9.62;100.00
55066;BME280;40964;42.114;24.220;2022-12-18T02:37:59;98533.25;;;9.58;100.00
55066;BME280;40964;42.114;24.220;2022-12-18T02:40:26;98532.59;;;9.50;100.00
55066;BME280;40964;42.114;24.220;2022-12-18T02:42:53;98526.25;;;9.37;100.00
55066;BME280;40964;42.114;24.220;2022-12-18T02:45:19;98525.78;;;9.34;100.00
55066;BME280;40964;42.114;24.220;2022-12-18T02:47:47;98527.19;;;9.30;100.00
55066;BME280;40964;42.114;24.220;2022-12-18T02:52:44;98535.06;;;9.30;100.00
55066;BME280;40964;42.114;24.220;2022-12-18T02:58:41;98528.06;;;9.16;100.00
55066;BME280;40964;42.114;24.220;2022-12-18T03:01:19;98535.59;;;9.19;100.00
55066;BME280;40964;42.114;24.220;2022-12-18T03:03:51;98536.19;;;9.21;100.00
55066;BME280;40964;42.114;24.220;2022-12-18T03:06:33;98531.75;;;9.21;100.00
55066;BME280;40964;42.114;24.220;2022-12-18T03:09:14;98536.63;;;9.24;100.00
55066;BME280;40964;42.114;24.220;2022-12-18T03:11:52;98537.06;;;9.28;100.00
55066;BME280;40964;42.114;24.220;2022-12-18T03:14:40;98537.63;;;9.23;100.00
55066;BME280;40964;42.114;24.220;2022-12-18T03:17:13;98532.81;;;9.27;100.00
55066;BME280;40964;42.114;24.220;2022-12-18T03:19:41;98536.25;;;9.27;100.00
55066;BME280;40964;42.114;24.220;2022-12-18T03:22:09;98553.00;;;9.26;100.00
55066;BME280;40964;42.114;24.220;2022-12-18T03:24:36;98556.63;;;9.25;100.00
55066;BME280;40964;42.114;24.220;2022-12-18T03:27:07;98548.50;;;9.20;100.00
55066;BME280;40964;42.114;24.220;2022-12-18T03:29:52;98552.19;;;9.26;100.00
55066;BME280;40964;42.114;24.220;2022-12-18T03:32:35;98566.69;;;9.22;100.00
55066;BME280;40964;42.114;24.220;2022-12-18T03:35:04;98570.25;;;9.14;100.00
55066;BME280;40964;42.114;24.220;2022-12-18T03:37:31;98576.31;;;9.15;100.00
55066;BME280;40964;42.114;24.220;2022-12-18T03:39:56;98575.88;;;9.11;100.00
55066;BME280;40964;42.114;24.220;2022-12-18T03:42:51;98575.88;;;9.11;100.00
55066;BME280;40964;42.114;24.220;2022-12-18T03:45:31;98581.19;;;8.96;100.00
55066;BME280;40964;42.114;24.220;2022-12-18T03:50:34;98593.16;;;8.84;100.00
55066;BME280;40964;42.114;24.220;2022-12-18T03:55:47;98602.88;;;8.69;100.00
55066;BME280;40964;42.114;24.220;2022-12-18T03:58:15;98612.34;;;8.70;100.00
55066;BME280;40964;42.114;24.220;2022-12-18T04:00:43;98611.94;;;8.66;100.00
55066;BME280;40964;42.114;24.220;2022-12-18T04:03:10;98613.34;;;8.69;100.00
55066;BME280;40964;42.114;24.220;2022-12-18T04:05:37;98616.88;;;8.76;100.00
55066;BME280;40964;42.114;24.220;2022-12-18T04:08:03;98607.69;;;8.65;100.00
55066;BME280;40964;42.114;24.220;2022-12-18T04:10:29;98626.75;;;8.74;100.00
55066;BME280;40964;42.114;24.220;2022-12-18T04:12:58;98633.44;;;8.76;100.00
55066;BME280;40964;42.114;24.220;2022-12-18T04:15:24;98633.94;;;8.87;100.00
55066;BME280;40964;42.114;24.220;2022-12-18T04:17:50;98639.00;;;8.88;100.00
55066;BME280;40964;42.114;24.220;2022-12-18T04:20:16;98644.75;;;8.98;100.00
55066;BME280;40964;42.114;24.220;2022-12-18T04:22:42;98637.97;;;9.04;100.00
55066;BME280;40964;42.114;24.220;2022-12-18T04:25:08;98646.13;;;9.09;100.00
55066;BME280;40964;42.114;24.220;2022-12-18T04:27:34;98641.09;;;9.14;100.00
55066;BME280;40964;42.114;24.220;2022-12-18T04:29:59;98638.75;;;9.19;100.00
55066;BME280;40964;42.114;24.220;2022-12-18T04:32:25;98652.75;;;9.26;100.00
55066;BME280;40964;42.114;24.220;2022-12-18T04:34:50;98655.19;;;9.28;100.00
55066;BME280;40964;42.114;24.220;2022-12-18T04:37:16;98655.81;;;9.30;100.00
55066;BME280;40964;42.114;24.220;2022-12-18T04:39:41;98658.06;;;9.33;100.00
55066;BME280;40964;42.114;24.220;2022-12-18T04:42:07;98665.38;;;9.37;100.00
55066;BME280;40964;42.114;24.220;2022-12-18T04:44:32;98667.50;;;9.27;100.00
55066;BME280;40964;42.114;24.220;2022-12-18T04:46:58;98669.97;;;9.14;100.00
55066;BME280;40964;42.114;24.220;2022-12-18T04:49:23;98663.78;;;9.22;100.00
55066;BME280;40964;42.114;24.220;2022-12-18T04:51:48;98666.31;;;9.30;100.00
55066;BME280;40964;42.114;24.220;2022-12-18T04:54:14;98680.50;;;9.35;100.00
55066;BME280;40964;42.114;24.220;2022-12-18T04:56:40;98679.31;;;9.38;100.00
55066;BME280;40964;42.114;24.220;2022-12-18T04:59:05;98687.00;;;9.39;100.00
55066;BME280;40964;42.114;24.220;2022-12-18T05:01:34;98678.31;;;9.39;100.00
55066;BME280;40964;42.114;24.220;2022-12-18T05:03:59;98691.94;;;9.49;100.00
55066;BME280;40964;42.114;24.220;2022-12-18T05:06:25;98692.94;;;9.48;100.00
55066;BME280;40964;42.114;24.220;2022-12-18T05:08:50;98694.84;;;9.54;100.00
55066;BME280;40964;42.114;24.220;2022-12-18T05:11:16;98699.06;;;9.55;100.00
55066;BME280;40964;42.114;24.220;2022-12-18T05:13:43;98699.81;;;9.49;100.00
55066;BME280;40964;42.114;24.220;2022-12-18T05:16:10;98709.94;;;9.52;100.00
55066;BME280;40964;42.114;24.220;2022-12-18T05:18:35;98708.69;;;9.48;100.00
55066;BME280;40964;42.114;24.220;2022-12-18T05:21:01;98697.38;;;9.48;100.00
55066;BME280;40964;42.114;24.220;2022-12-18T05:23:27;98707.50;;;9.51;100.00
55066;BME280;40964;42.114;24.220;2022-12-18T05:25:54;98721.63;;;9.50;100.00
55066;BME280;40964;42.114;24.220;2022-12-18T05:28:21;98727.06;;;9.48;100.00
55066;BME280;40964;42.114;24.220;2022-12-18T05:30:52;98724.25;;;9.50;100.00
55066;BME280;40964;42.114;24.220;2022-12-18T05:33:18;98737.78;;;9.47;100.00
55066;BME280;40964;42.114;24.220;2022-12-18T05:35:50;98735.53;;;9.44;100.00
55066;BME280;40964;42.114;24.220;2022-12-18T05:38:15;98747.28;;;9.48;100.00
55066;BME280;40964;42.114;24.220;2022-12-18T05:40:42;98742.63;;;9.50;100.00
55066;BME280;40964;42.114;24.220;2022-12-18T05:43:09;98755.22;;;9.54;100.00
55066;BME280;40964;42.114;24.220;2022-12-18T05:45:39;98755.84;;;9.56;100.00
55066;BME280;40964;42.114;24.220;2022-12-18T05:48:06;98765.28;;;9.51;100.00
55066;BME280;40964;42.114;24.220;2022-12-18T05:50:36;98761.22;;;9.48;100.00
55066;BME280;40964;42.114;24.220;2022-12-18T05:53:02;98766.34;;;9.56;100.00
55066;BME280;40964;42.114;24.220;2022-12-18T05:55:28;98772.59;;;9.55;100.00
55066;BME280;40964;42.114;24.220;2022-12-18T05:57:53;98772.22;;;9.58;100.00
55066;BME280;40964;42.114;24.220;2022-12-18T06:00:19;98770.00;;;9.41;100.00
55066;BME280;40964;42.114;24.220;2022-12-18T06:02:48;98760.06;;;9.36;100.00
55066;BME280;40964;42.114;24.220;2022-12-18T06:05:13;98773.53;;;9.48;100.00
55066;BME280;40964;42.114;24.220;2022-12-18T06:07:39;98780.59;;;9.47;100.00
55066;BME280;40964;42.114;24.220;2022-12-18T06:10:05;98780.22;;;9.50;100.00
55066;BME280;40964;42.114;24.220;2022-12-18T06:12:30;98780.03;;;9.52;100.00
55066;BME280;40964;42.114;24.220;2022-12-18T06:14:56;98779.00;;;9.31;100.00
55066;BME280;40964;42.114;24.220;2022-12-18T06:17:21;98786.69;;;9.33;100.00
55066;BME280;40964;42.114;24.220;2022-12-18T06:19:47;98785.41;;;9.44;100.00
55066;BME280;40964;42.114;24.220;2022-12-18T06:22:12;98785.47;;;9.50;100.00
55066;BME280;40964;42.114;24.220;2022-12-18T06:24:38;98795.63;;;9.53;100.00
55066;BME280;40964;42.114;24.220;2022-12-18T06:27:03;98794.44;;;9.56;100.00
55066;BME280;40964;42.114;24.220;2022-12-18T06:29:29;98804.47;;;9.52;100.00
55066;BME280;40964;42.114;24.220;2022-12-18T06:31:54;98807.56;;;9.56;100.00
55066;BME280;40964;42.114;24.220;2022-12-18T06:34:19;98814.25;;;9.58;100.00
55066;BME280;40964;42.114;24.220;2022-12-18T06:36:45;98816.34;;;9.63;100.00
55066;BME280;40964;42.114;24.220;2022-12-18T06:39:10;98817.50;;;9.60;100.00
55066;BME280;40964;42.114;24.220;2022-12-18T06:41:36;98823.41;;;9.48;100.00
55066;BME280;40964;42.114;24.220;2022-12-18T06:44:02;98833.19;;;9.54;100.00
55066;BME280;40964;42.114;24.220;2022-12-18T06:46:28;98836.88;;;9.59;100.00
55066;BME280;40964;42.114;24.220;2022-12-18T06:48:53;98844.03;;;9.51;100.00
55066;BME280;40964;42.114;24.220;2022-12-18T06:51:23;98838.66;;;9.37;100.00
55066;BME280;40964;42.114;24.220;2022-12-18T06:53:49;98842.81;;;9.47;100.00
55066;BME280;40964;42.114;24.220;2022-12-18T06:56:15;98855.44;;;9.58;100.00
55066;BME280;40964;42.114;24.220;2022-12-18T06:58:41;98850.00;;;9.59;100.00
55066;BME280;40964;42.114;24.220;2022-12-18T07:01:09;98839.25;;;9.54;100.00
55066;BME280;40964;42.114;24.220;2022-12-18T07:03:36;98849.72;;;9.69;100.00
55066;BME280;40964;42.114;24.220;2022-12-18T07:06:02;98855.25;;;9.74;100.00
55066;BME280;40964;42.114;24.220;2022-12-18T07:08:29;98843.84;;;9.67;100.00
55066;BME280;40964;42.114;24.220;2022-12-18T07:10:55;98861.09;;;9.55;100.00
55066;BME280;40964;42.114;24.220;2022-12-18T07:13:20;98857.66;;;9.54;100.00
55066;BME280;40964;42.114;24.220;2022-12-18T07:15:46;98862.81;;;9.48;100.00
55066;BME280;40964;42.114;24.220;2022-12-18T07:18:11;98869.78;;;9.41;100.00
55066;BME280;40964;42.114;24.220;2022-12-18T07:20:37;98876.13;;;9.31;100.00
55066;BME280;40964;42.114;24.220;2022-12-18T07:23:03;98882.00;;;9.33;100.00
55066;BME280;40964;42.114;24.220;2022-12-18T07:25:34;98877.38;;;9.21;100.00
55066;BME280;40964;42.114;24.220;2022-12-18T07:28:00;98888.06;;;9.34;100.00
55066;BME280;40964;42.114;24.220;2022-12-18T07:30:25;98884.19;;;9.45;100.00
55066;BME280;40964;42.114;24.220;2022-12-18T07:32:50;98885.34;;;9.57;100.00
55066;BME280;40964;42.114;24.220;2022-12-18T07:35:16;98890.94;;;9.68;100.00
55066;BME280;40964;42.114;24.220;2022-12-18T07:37:41;98892.03;;;9.74;100.00
55066;BME280;40964;42.114;24.220;2022-12-18T07:40:08;98887.47;;;9.83;100.00
55066;BME280;40964;42.114;24.220;2022-12-18T07:42:33;98891.34;;;9.87;100.00
55066;BME280;40964;42.114;24.220;2022-12-18T07:45:00;98888.91;;;9.85;100.00
55066;BME280;40964;42.114;24.220;2022-12-18T07:47:27;98881.41;;;9.82;100.00
55066;BME280;40964;42.114;24.220;2022-12-18T07:49:52;98895.78;;;9.86;100.00
55066;BME280;40964;42.114;24.220;2022-12-18T07:52:18;98884.38;;;9.79;100.00
55066;BME280;40964;42.114;24.220;2022-12-18T07:54:43;98893.63;;;9.90;100.00
55066;BME280;40964;42.114;24.220;2022-12-18T07:57:09;98900.13;;;9.94;100.00
55066;BME280;40964;42.114;24.220;2022-12-18T07:59:34;98901.41;;;9.98;100.00
55066;BME280;40964;42.114;24.220;2022-12-18T08:02:00;98885.06;;;10.03;100.00
55066;BME280;40964;42.114;24.220;2022-12-18T08:04:26;98895.28;;;10.12;100.00
55066;BME280;40964;42.114;24.220;2022-12-18T08:06:51;98906.25;;;10.16;100.00
55066;BME280;40964;42.114;24.220;2022-12-18T08:09:17;98917.19;;;10.19;100.00
55066;BME280;40964;42.114;24.220;2022-12-18T08:11:42;98919.19;;;10.17;100.00
55066;BME280;40964;42.114;24.220;2022-12-18T08:14:08;98915.75;;;10.17;100.00
55066;BME280;40964;42.114;24.220;2022-12-18T08:16:34;98912.56;;;10.21;100.00
55066;BME280;40964;42.114;24.220;2022-12-18T08:18:59;98893.19;;;10.22;100.00
55066;BME280;40964;42.114;24.220;2022-12-18T08:21:27;98904.47;;;10.38;100.00
55066;BME280;40964;42.114;24.220;2022-12-18T08:23:56;98909.00;;;10.44;100.00
55066;BME280;40964;42.114;24.220;2022-12-18T08:26:22;98902.22;;;10.35;100.00
55066;BME280;40964;42.114;24.220;2022-12-18T08:28:49;98920.25;;;10.38;100.00
55066;BME280;40964;42.114;24.220;2022-12-18T08:31:15;98915.41;;;10.41;100.00
55066;BME280;40964;42.114;24.220;2022-12-18T08:33:41;98916.31;;;10.48;100.00
55066;BME280;40964;42.114;24.220;2022-12-18T08:36:08;98930.94;;;10.58;100.00
55066;BME280;40964;42.114;24.220;2022-12-18T08:38:34;98937.66;;;10.39;100.00
55066;BME280;40964;42.114;24.220;2022-12-18T08:41:08;98935.75;;;10.33;100.00
55066;BME280;40964;42.114;24.220;2022-12-18T08:43:34;98928.63;;;10.27;100.00
55066;BME280;40964;42.114;24.220;2022-12-18T08:46:19;98920.44;;;10.21;100.00
55066;BME280;40964;42.114;24.220;2022-12-18T08:48:46;98929.13;;;10.37;100.00
55066;BME280;40964;42.114;24.220;2022-12-18T08:51:11;98908.53;;;10.40;100.00
55066;BME280;40964;42.114;24.220;2022-12-18T08:53:37;98926.31;;;10.60;100.00
55066;BME280;40964;42.114;24.220;2022-12-18T08:56:04;98927.31;;;10.80;100.00
55066;BME280;40964;42.114;24.220;2022-12-18T08:58:30;98920.44;;;10.79;100.00
55066;BME280;40964;42.114;24.220;2022-12-18T09:01:06;98936.94;;;10.94;100.00
55066;BME280;40964;42.114;24.220;2022-12-18T09:03:33;98932.53;;;11.01;100.00
55066;BME280;40964;42.114;24.220;2022-12-18T09:05:58;98940.72;;;11.13;100.00
55066;BME280;40964;42.114;24.220;2022-12-18T09:08:25;98941.13;;;11.10;98.61
55066;BME280;40964;42.114;24.220;2022-12-18T09:10:51;98924.38;;;11.18;96.54
55066;BME280;40964;42.114;24.220;2022-12-18T09:13:17;98941.25;;;11.30;98.15
55066;BME280;40964;42.114;24.220;2022-12-18T09:15:51;98948.69;;;11.20;87.74
55066;BME280;40964;42.114;24.220;2022-12-18T09:18:19;98944.81;;;10.88;88.08
55066;BME280;40964;42.114;24.220;2022-12-18T09:20:45;98950.94;;;10.73;83.65
55066;BME280;40964;42.114;24.220;2022-12-18T09:23:11;98963.41;;;10.65;86.27
55066;BME280;40964;42.114;24.220;2022-12-18T09:25:37;98951.19;;;10.36;86.25
55066;BME280;40964;42.114;24.220;2022-12-18T09:28:05;98959.25;;;10.19;83.08
55066;BME280;40964;42.114;24.220;2022-12-18T09:30:31;98951.69;;;9.95;84.85
55066;BME280;40964;42.114;24.220;2022-12-18T09:32:59;98947.81;;;9.76;85.97
55066;BME280;40964;42.114;24.220;2022-12-18T09:35:24;98948.00;;;9.75;86.64
55066;BME280;40964;42.114;24.220;2022-12-18T09:37:50;98954.06;;;9.75;89.11
55066;BME280;40964;42.114;24.220;2022-12-18T09:40:18;98944.13;;;9.71;88.65
55066;BME280;40964;42.114;24.220;2022-12-18T09:42:49;98955.06;;;9.74;88.52
55066;BME280;40964;42.114;24.220;2022-12-18T09:45:16;98944.66;;;9.81;88.02
55066;BME280;40964;42.114;24.220;2022-12-18T09:47:43;98943.19;;;9.93;87.49
55066;BME280;40964;42.114;24.220;2022-12-18T09:50:24;98952.88;;;9.92;85.84
55066;BME280;40964;42.114;24.220;2022-12-18T09:52:56;98947.44;;;9.94;85.09
55066;BME280;40964;42.114;24.220;2022-12-18T09:55:28;98956.50;;;9.91;86.73
55066;BME280;40964;42.114;24.220;2022-12-18T09:58:00;98955.50;;;9.92;86.79
55066;BME280;40964;42.114;24.220;2022-12-18T10:00:28;98956.50;;;9.91;87.02
55066;BME280;40964;42.114;24.220;2022-12-18T10:03:00;98949.44;;;9.92;85.21
55066;BME280;40964;42.114;24.220;2022-12-18T10:05:46;98952.50;;;9.95;84.94
55066;BME280;40964;42.114;24.220;2022-12-18T10:08:32;98942.44;;;9.99;84.75
55066;BME280;40964;42.114;24.220;2022-12-18T10:13:55;98951.66;;;10.10;84.45
55066;BME280;40964;42.114;24.220;2022-12-18T10:19:36;98947.94;;;10.19;86.22
55066;BME280;40964;42.114;24.220;2022-12-18T10:27:44;98938.78;;;10.15;81.16
55066;BME280;40964;42.114;24.220;2022-12-18T10:30:20;98952.66;;;10.23;83.98
55066;BME280;40964;42.114;24.220;2022-12-18T10:33:05;98939.34;;;10.10;84.54
55066;BME280;40964;42.114;24.220;2022-12-18T10:35:52;98943.00;;;9.94;81.60
55066;BME280;40964;42.114;24.220;2022-12-18T10:38:37;98946.91;;;9.99;82.86
55066;BME280;40964;42.114;24.220;2022-12-18T10:44:20;98970.47;;;9.92;82.67
55066;BME280;40964;42.114;24.220;2022-12-18T10:47:06;98959.47;;;10.03;83.01
55066;BME280;40964;42.114;24.220;2022-12-18T10:49:54;98953.06;;;9.91;83.15
55066;BME280;40964;42.114;24.220;2022-12-18T10:52:39;98965.91;;;10.01;83.16
55066;BME280;40964;42.114;24.220;2022-12-18T10:55:05;98966.09;;;9.99;81.82
55066;BME280;40964;42.114;24.220;2022-12-18T10:57:38;98958.56;;;9.96;83.20
55066;BME280;40964;42.114;24.220;2022-12-18T11:00:22;98960.66;;;10.01;83.14
55066;BME280;40964;42.114;24.220;2022-12-18T11:02:49;98964.91;;;9.87;82.12
55066;BME280;40964;42.114;24.220;2022-12-18T11:05:32;98952.78;;;9.86;83.95
55066;BME280;40964;42.114;24.220;2022-12-18T11:07:59;98963.47;;;9.84;81.80
55066;BME280;40964;42.114;24.220;2022-12-18T11:10:32;98960.84;;;9.84;82.87
55066;BME280;40964;42.114;24.220;2022-12-18T11:13:18;98959.84;;;9.85;83.64
55066;BME280;40964;42.114;24.220;2022-12-18T11:15:46;98961.66;;;9.85;82.54
55066;BME280;40964;42.114;24.220;2022-12-18T11:18:32;98956.78;;;9.82;84.02
55066;BME280;40964;42.114;24.220;2022-12-18T11:21:09;98953.78;;;9.85;84.76
55066;BME280;40964;42.114;24.220;2022-12-18T11:23:37;98960.75;;;9.78;82.17
55066;BME280;40964;42.114;24.220;2022-12-18T11:26:09;98963.19;;;9.79;82.97
55066;BME280;40964;42.114;24.220;2022-12-18T11:28:39;98954.06;;;9.90;83.63
55066;BME280;40964;42.114;24.220;2022-12-18T11:33:43;98954.06;;;9.90;81.92
55066;BME280;40964;42.114;24.220;2022-12-18T11:36:10;98970.28;;;9.93;82.18
55066;BME280;40964;42.114;24.220;2022-12-18T11:38:40;98965.81;;;9.94;83.41
55066;BME280;40964;42.114;24.220;2022-12-18T11:41:26;98969.66;;;9.91;83.83
55066;BME280;40964;42.114;24.220;2022-12-18T11:44:26;98973.63;;;9.87;80.50
55066;BME280;40964;42.114;24.220;2022-12-18T11:49:39;98975.00;;;9.83;81.38
55066;BME280;40964;42.114;24.220;2022-12-18T11:52:22;98968.66;;;9.78;80.06
55066;BME280;40964;42.114;24.220;2022-12-18T11:54:58;98978.16;;;9.79;80.92
55066;BME280;40964;42.114;24.220;2022-12-18T12:00:27;98965.91;;;9.86;81.25
55066;BME280;40964;42.114;24.220;2022-12-18T12:11:05;98973.59;;;10.02;83.40
55066;BME280;40964;42.114;24.220;2022-12-18T12:13:39;98979.34;;;9.76;79.85
55066;BME280;40964;42.114;24.220;2022-12-18T12:16:18;98974.91;;;9.62;81.21
55066;BME280;40964;42.114;24.220;2022-12-18T12:24:51;98983.25;;;9.13;80.98
55066;BME280;40964;42.114;24.220;2022-12-18T12:30:07;98998.81;;;9.15;83.30
55066;BME280;40964;42.114;24.220;2022-12-18T12:35:36;99002.81;;;9.10;83.58
55066;BME280;40964;42.114;24.220;2022-12-18T12:38:23;99007.94;;;9.04;82.14
55066;BME280;40964;42.114;24.220;2022-12-18T12:40:57;99018.97;;;8.99;81.98
55066;BME280;40964;42.114;24.220;2022-12-18T12:46:00;99021.44;;;9.01;82.50
55066;BME280;40964;42.114;24.220;2022-12-18T12:51:29;99035.06;;;8.96;81.82
55066;BME280;40964;42.114;24.220;2022-12-18T12:53:58;99047.19;;;8.97;82.11
55066;BME280;40964;42.114;24.220;2022-12-18T12:56:30;99049.16;;;8.95;80.67
55066;BME280;40964;42.114;24.220;2022-12-18T13:01:47;99048.22;;;8.88;81.85
55066;BME280;40964;42.114;24.220;2022-12-18T13:04:29;99045.09;;;8.93;81.52
55066;BME280;40964;42.114;24.220;2022-12-18T13:07:37;99061.06;;;9.06;82.18
55066;BME280;40964;42.114;24.220;2022-12-18T13:15:28;99069.59;;;9.08;80.63
55066;BME280;40964;42.114;24.220;2022-12-18T13:18:05;99078.09;;;9.10;80.53
55066;BME280;40964;42.114;24.220;2022-12-18T13:23:28;99065.16;;;9.08;80.41
55066;BME280;40964;42.114;24.220;2022-12-18T13:34:16;99096.13;;;9.13;80.87
55066;BME280;40964;42.114;24.220;2022-12-18T13:36:43;99093.66;;;9.12;80.13
55066;BME280;40964;42.114;24.220;2022-12-18T13:41:34;99096.13;;;9.13;79.65
55066;BME280;40964;42.114;24.220;2022-12-18T13:44:33;99099.22;;;9.17;78.85
55066;BME280;40964;42.114;24.220;2022-12-18T13:47:02;99097.78;;;9.06;78.41
55066;BME280;40964;42.114;24.220;2022-12-18T13:49:40;99105.16;;;9.10;78.25
55066;BME280;40964;42.114;24.220;2022-12-18T13:52:17;99098.28;;;9.09;78.63
55066;BME280;40964;42.114;24.220;2022-12-18T13:54:47;99103.84;;;9.06;77.88
55066;BME280;40964;42.114;24.220;2022-12-18T13:57:43;99110.75;;;9.07;78.17
55066;BME280;40964;42.114;24.220;2022-12-18T14:02:50;99064.72;;;8.74;78.80
55066;BME280;40964;42.114;24.220;2022-12-18T14:05:30;99099.03;;;8.95;80.65
55066;BME280;40964;42.114;24.220;2022-12-18T14:08:08;99110.19;;;8.89;78.11
55066;BME280;40964;42.114;24.220;2022-12-18T14:10:35;99116.34;;;8.81;77.96
55066;BME280;40964;42.114;24.220;2022-12-18T14:13:07;99110.09;;;8.82;78.93
55066;BME280;40964;42.114;24.220;2022-12-18T14:15:38;99109.78;;;8.77;78.83
55066;BME280;40964;42.114;24.220;2022-12-18T14:20:44;99099.25;;;8.55;79.32
55066;BME280;40964;42.114;24.220;2022-12-18T14:23:33;99118.53;;;8.62;78.71
55066;BME280;40964;42.114;24.220;2022-12-18T14:25:59;99132.81;;;8.59;79.37
55066;BME280;40964;42.114;24.220;2022-12-18T14:28:25;99137.44;;;8.49;79.09
55066;BME280;40964;42.114;24.220;2022-12-18T14:30:52;99138.28;;;8.49;78.16
55066;BME280;40964;42.114;24.220;2022-12-18T14:33:21;99139.72;;;8.52;77.27
55066;BME280;40964;42.114;24.220;2022-12-18T14:35:54;99147.09;;;8.57;77.10
55066;BME280;40964;42.114;24.220;2022-12-18T14:38:27;99144.47;;;8.57;77.80
55066;BME280;40964;42.114;24.220;2022-12-18T14:40:58;99153.53;;;8.46;77.73
55066;BME280;40964;42.114;24.220;2022-12-18T14:43:24;99151.75;;;8.38;76.77